Time;durP1;ratioP1;P1;durP2;ratioP2;P2;SDS_P1;SDS_P2;PMS_P1;PMS_P2;Temp;Humidity;BMP_temperature;BMP_pressure;BME280_temperature;BME280_humidity;BME280_pressure;Samples;Min_cycle;Max_cycle;Signal;HPM_P1;HPM_P2
2021/08/12 00:00:28;;;;;;;;;;;;;;;23.58;64.29;97332.11;222365;261;98933;-68
2021/08/12 00:01:30;;;;;;;;;;;;;;;23.72;63.85;97333.81;223134;260;98977;-68
2021/08/12 00:02:31;;;;;;;;;;;;;;;23.88;63.22;97332.00;221947;262;98930;-68
2021/08/12 00:03:32;;;;;;;;;;;;;;;23.87;63.13;97337.31;222813;260;98932;-66
2021/08/12 00:04:34;;;;;;;;;;;;;;;23.68;63.47;97333.66;221995;262;98057;-65
2021/08/12 00:05:53;;;;;;;;;;;;;;;23.82;62.96;97336.13;226577;255;70485;-66
2021/08/12 00:06:54;;;;;;;;;;;;;;;23.78;63.16;97340.73;223693;259;190408;-64
2021/08/12 00:07:55;;;;;;;;;;;;;;;23.79;63.15;97335.43;220778;262;277981;-64
2021/08/12 00:08:57;;;;;;;;;;;;;;;23.80;63.13;97339.81;221350;261;195577;-66
2021/08/12 00:10:00;;;;;;;;;;;;;;;23.87;63.07;97338.12;222195;261;192353;-66
2021/08/12 00:11:01;;;;;;;;;;;;;;;23.89;63.07;97330.27;222498;260;98083;-65
2021/08/12 00:12:05;;;;;;;;;;;;;;;23.76;63.39;97340.27;221537;261;98038;-65
2021/08/12 00:13:06;;;;;;;;;;;;;;;23.91;63.15;97337.66;222509;261;68898;-66
2021/08/12 00:14:07;;;;;;;;;;;;;;;23.90;63.06;97331.08;222031;261;189425;-62
2021/08/12 00:15:08;;;;;;;;;;;;;;;23.88;62.80;97336.16;221906;261;276321;-68
2021/08/12 00:16:10;;;;;;;;;;;;;;;23.90;62.71;97338.00;221417;261;195478;-64
2021/08/12 00:17:11;;;;;;;;;;;;;;;24.01;62.57;97335.03;221970;261;193974;-66
2021/08/12 00:18:12;;;;;;;;;;;;;;;23.91;62.66;97332.70;222231;261;98937;-65
2021/08/12 00:19:14;;;;;;;;;;;;;;;23.87;63.09;97333.97;222098;261;98945;-65
2021/08/12 00:20:15;;;;;;;;;;;;;;;23.84;62.77;97336.61;222212;261;98792;-65
2021/08/12 00:21:16;;;;;;;;;;;;;;;23.81;63.63;97339.47;221971;261;98938;-67
2021/08/12 00:22:18;;;;;;;;;;;;;;;23.71;63.62;97336.31;222108;261;98909;-65
2021/08/12 00:23:19;;;;;;;;;;;;;;;23.32;64.35;97333.70;221994;261;98978;-68
2021/08/12 00:24:21;;;;;;;;;;;;;;;23.54;63.29;97327.01;221775;261;98925;-65
2021/08/12 00:25:23;;;;;;;;;;;;;;;23.64;63.02;97330.77;220663;261;99008;-65
2021/08/12 00:26:24;;;;;;;;;;;;;;;23.68;63.12;97336.42;222470;260;99517;-69
2021/08/12 00:27:25;;;;;;;;;;;;;;;23.68;64.24;97327.31;221830;262;98934;-67
2021/08/12 00:28:27;;;;;;;;;;;;;;;23.82;62.81;97334.19;221517;262;98954;-66
2021/08/12 00:29:28;;;;;;;;;;;;;;;23.99;62.25;97333.77;221061;262;98825;-66
2021/08/12 00:30:29;;;;;;;;;;;;;;;23.86;62.39;97330.97;220264;262;195589;-68
2021/08/12 00:31:31;;;;;;;;;;;;;;;23.90;62.25;97326.35;222262;260;193168;-66
2021/08/12 00:32:33;;;;;;;;;;;;;;;23.86;62.25;97328.20;222305;261;98931;-64
2021/08/12 00:33:34;;;;;;;;;;;;;;;23.85;62.23;97332.70;220509;262;97884;-67
2021/08/12 00:34:36;;;;;;;;;;;;;;;23.87;62.19;97330.39;221661;262;98909;-66
2021/08/12 00:35:37;;;;;;;;;;;;;;;23.90;62.16;97333.27;221681;260;98934;-66
2021/08/12 00:36:38;;;;;;;;;;;;;;;23.85;62.29;97327.97;221670;261;99447;-62
2021/08/12 00:37:40;;;;;;;;;;;;;;;23.79;62.29;97319.63;221314;261;195523;-63
2021/08/12 00:38:42;;;;;;;;;;;;;;;23.77;62.53;97321.13;221348;261;193964;-65
2021/08/12 00:39:43;;;;;;;;;;;;;;;23.74;62.53;97324.01;221423;261;98932;-64
2021/08/12 00:40:45;;;;;;;;;;;;;;;23.70;62.57;97325.02;221442;261;99464;-66
2021/08/12 00:41:46;;;;;;;;;;;;;;;23.69;62.68;97319.25;221679;261;98935;-65
2021/08/12 00:42:47;;;;;;;;;;;;;;;23.70;62.56;97326.39;221427;261;99447;-64
2021/08/12 00:44:07;;;;;;;;;;;;;;;23.72;62.59;97325.50;227343;255;68929;-63
2021/08/12 00:45:08;;;;;;;;;;;;;;;23.73;62.62;97327.13;221984;260;189531;-61
2021/08/12 00:46:09;;;;;;;;;;;;;;;23.76;62.58;97326.43;220661;262;277013;-61
2021/08/12 00:47:11;;;;;;;;;;;;;;;23.77;62.44;97330.23;221438;262;195619;-64
2021/08/12 00:49:00;;;;;;;;;;;;;;;23.66;62.45;97328.47;227492;255;68927;-64
2021/08/12 00:50:02;;;;;;;;;;;;;;;23.81;62.28;97323.44;222265;260;191781;-71
2021/08/12 00:51:03;;;;;;;;;;;;;;;23.81;62.18;97321.48;221232;261;274309;-68
2021/08/12 00:52:04;;;;;;;;;;;;;;;23.86;62.04;97319.09;220709;262;193619;-64
2021/08/12 00:53:05;;;;;;;;;;;;;;;23.84;62.08;97317.23;221413;261;193163;-66
2021/08/12 00:54:07;;;;;;;;;;;;;;;23.71;62.79;97314.98;221734;261;98949;-67
2021/08/12 00:55:08;;;;;;;;;;;;;;;23.62;62.49;97317.86;221235;262;190035;-67
2021/08/12 00:56:09;;;;;;;;;;;;;;;23.54;62.60;97316.52;222463;260;280385;-67
2021/08/12 00:57:11;;;;;;;;;;;;;;;23.74;62.22;97319.05;222737;260;195520;-63
2021/08/12 00:58:12;;;;;;;;;;;;;;;23.84;65.33;97322.77;223079;260;194039;-61
2021/08/12 00:59:14;;;;;;;;;;;;;;;23.95;62.24;97315.66;223736;259;98968;-71
2021/08/12 01:00:15;;;;;;;;;;;;;;;24.12;61.52;97314.64;223204;260;98004;-64
2021/08/12 01:01:17;;;;;;;;;;;;;;;24.24;61.10;97317.42;223394;260;99044;-66
2021/08/12 01:02:18;;;;;;;;;;;;;;;24.32;60.89;97315.74;223205;260;98938;-47
2021/08/12 01:03:19;;;;;;;;;;;;;;;24.34;60.78;97321.74;223334;260;99296;-57
2021/08/12 01:04:21;;;;;;;;;;;;;;;24.10;69.62;97319.72;222806;260;97063;-49
2021/08/12 01:05:22;;;;;;;;;;;;;;;24.12;62.56;97322.94;222565;260;193276;-57
2021/08/12 01:06:23;;;;;;;;;;;;;;;24.18;61.74;97315.47;222476;260;98975;-49
2021/08/12 01:07:25;;;;;;;;;;;;;;;23.98;66.10;97314.96;220790;262;98885;-48
2021/08/12 01:08:33;;;;;;;;;;;;;;;24.04;62.57;97314.98;222783;260;98937;-50
2021/08/12 01:09:29;;;;;;;;;;;;;;;23.97;63.14;97314.73;222531;259;66876;-52
2021/08/12 01:10:30;;;;;;;;;;;;;;;24.05;62.33;97313.84;221861;260;275864;-52
2021/08/12 01:11:32;;;;;;;;;;;;;;;24.10;61.77;97314.98;222294;260;196204;-52
2021/08/12 01:12:33;;;;;;;;;;;;;;;24.17;61.47;97315.23;222163;260;193533;-47
2021/08/12 01:13:35;;;;;;;;;;;;;;;24.24;61.37;97307.18;222248;260;98985;-49
2021/08/12 01:14:36;;;;;;;;;;;;;;;24.29;61.14;97308.91;222046;260;189260;-46
2021/08/12 01:15:37;;;;;;;;;;;;;;;24.27;61.19;97309.83;221007;261;275693;-56
2021/08/12 01:16:39;;;;;;;;;;;;;;;24.32;61.00;97308.81;223296;260;195587;-55
2021/08/12 01:17:40;;;;;;;;;;;;;;;24.32;60.96;97307.43;222535;260;193588;-50
2021/08/12 01:18:42;;;;;;;;;;;;;;;24.29;60.91;97306.71;222786;260;99516;-54
2021/08/12 01:19:43;;;;;;;;;;;;;;;24.29;60.89;97306.14;222650;260;98007;-53
2021/08/12 01:20:44;;;;;;;;;;;;;;;24.13;62.16;97309.33;222619;260;97128;-53
2021/08/12 01:21:46;;;;;;;;;;;;;;;23.89;69.74;97309.51;222617;260;98836;-47
2021/08/12 01:22:47;;;;;;;;;;;;;;;23.88;63.45;97307.90;222862;260;98949;-52
2021/08/12 01:23:49;;;;;;;;;;;;;;;23.98;62.28;97310.81;222438;260;97959;-50
2021/08/12 01:24:50;;;;;;;;;;;;;;;24.09;61.75;97313.37;222530;259;192989;-55
2021/08/12 01:25:51;;;;;;;;;;;;;;;24.10;61.43;97308.06;222967;260;98904;-54
2021/08/12 01:26:53;;;;;;;;;;;;;;;24.15;61.28;97307.86;222619;260;99002;-55
2021/08/12 01:27:54;;;;;;;;;;;;;;;24.14;61.12;97313.17;222877;260;98927;-47
2021/08/12 01:28:55;;;;;;;;;;;;;;;24.09;61.86;97313.95;222565;260;98040;-48
2021/08/12 01:29:57;;;;;;;;;;;;;;;24.02;61.72;97310.34;223029;260;98948;-53
2021/08/12 01:30:58;;;;;;;;;;;;;;;24.08;61.42;97313.14;222424;260;98937;-55
2021/08/12 01:31:59;;;;;;;;;;;;;;;24.13;61.08;97310.71;222505;260;195081;-50
2021/08/12 01:33:01;;;;;;;;;;;;;;;24.00;61.39;97306.31;222810;260;98952;-49
2021/08/12 01:34:03;;;;;;;;;;;;;;;24.03;61.17;97310.61;222937;260;189207;-47
2021/08/12 01:35:04;;;;;;;;;;;;;;;24.17;61.00;97309.70;221883;260;278098;-51
2021/08/12 01:36:05;;;;;;;;;;;;;;;24.11;60.73;97311.06;222234;260;195633;-52
2021/08/12 01:37:07;;;;;;;;;;;;;;;24.21;60.67;97310.62;222184;260;193865;-48
2021/08/12 01:38:08;;;;;;;;;;;;;;;24.19;60.39;97312.93;221888;261;98946;-51
2021/08/12 01:39:11;;;;;;;;;;;;;;;24.19;60.36;97315.70;222100;261;192356;-50
2021/08/12 01:40:12;;;;;;;;;;;;;;;24.18;60.23;97312.70;222563;259;277252;-53
2021/08/12 01:41:13;;;;;;;;;;;;;;;24.23;60.26;97314.42;222574;260;195628;-51
2021/08/12 01:42:15;;;;;;;;;;;;;;;24.27;60.18;97311.80;222855;260;194288;-50
2021/08/12 01:43:16;;;;;;;;;;;;;;;24.29;60.00;97312.25;222466;260;98932;-50
2021/08/12 01:44:18;;;;;;;;;;;;;;;24.28;59.98;97310.06;221951;260;190207;-47
2021/08/12 01:45:19;;;;;;;;;;;;;;;24.28;59.83;97310.06;220525;262;277143;-48
2021/08/12 01:46:20;;;;;;;;;;;;;;;24.21;59.85;97312.00;221547;261;194940;-51
2021/08/12 01:47:22;;;;;;;;;;;;;;;24.26;59.89;97308.80;222328;260;193574;-46
2021/08/12 01:48:23;;;;;;;;;;;;;;;24.26;59.83;97303.26;222660;261;98941;-52
2021/08/12 01:49:24;;;;;;;;;;;;;;;24.27;59.71;97307.64;222524;260;99322;-52
2021/08/12 01:50:26;;;;;;;;;;;;;;;24.19;59.75;97302.42;222392;260;97066;-47
2021/08/12 01:51:27;;;;;;;;;;;;;;;24.16;59.70;97305.31;222001;260;98945;-53
2021/08/12 01:52:28;;;;;;;;;;;;;;;24.22;59.67;97308.66;221039;262;98958;-46
2021/08/12 01:53:30;;;;;;;;;;;;;;;24.24;59.67;97305.80;221210;262;98915;-53
2021/08/12 01:54:31;;;;;;;;;;;;;;;24.21;59.58;97305.66;221485;261;98994;-54
2021/08/12 01:55:32;;;;;;;;;;;;;;;24.19;59.58;97307.39;221807;261;98961;-51
2021/08/12 01:56:34;;;;;;;;;;;;;;;24.08;59.78;97306.80;221908;260;98962;-52
2021/08/12 01:57:35;;;;;;;;;;;;;;;24.07;59.79;97305.98;222103;262;98949;-49
2021/08/12 01:58:36;;;;;;;;;;;;;;;24.07;59.79;97308.75;221622;262;98964;-53
2021/08/12 01:59:38;;;;;;;;;;;;;;;24.09;59.71;97304.26;222233;260;98971;-48
2021/08/12 02:00:39;;;;;;;;;;;;;;;24.03;59.69;97305.06;221971;260;98014;-51
2021/08/12 02:01:41;;;;;;;;;;;;;;;24.06;59.71;97309.91;220734;262;98030;-54
2021/08/12 02:02:42;;;;;;;;;;;;;;;24.01;59.76;97307.34;221501;262;98997;-52
2021/08/12 02:03:43;;;;;;;;;;;;;;;24.00;59.76;97308.50;221866;260;98012;-49
2021/08/12 02:04:44;;;;;;;;;;;;;;;23.98;59.76;97307.23;222758;261;97173;-52
2021/08/12 02:05:47;;;;;;;;;;;;;;;24.00;59.72;97304.92;221558;261;98961;-51
2021/08/12 02:06:48;;;;;;;;;;;;;;;23.98;59.74;97311.38;222380;260;97977;-52
2021/08/12 02:07:49;;;;;;;;;;;;;;;23.94;59.80;97301.58;221813;262;196214;-49
2021/08/12 02:08:51;;;;;;;;;;;;;;;23.95;59.75;97303.20;221690;262;191773;-48
2021/08/12 02:09:52;;;;;;;;;;;;;;;23.98;59.75;97298.92;221580;261;97055;-50
2021/08/12 02:10:53;;;;;;;;;;;;;;;23.92;59.77;97301.09;222865;259;189647;-55
2021/08/12 02:11:55;;;;;;;;;;;;;;;23.76;60.33;97308.44;221211;262;277791;-51
2021/08/12 02:12:56;;;;;;;;;;;;;;;23.84;60.12;97306.97;222023;261;194757;-54
2021/08/12 02:13:57;;;;;;;;;;;;;;;23.82;60.15;97300.14;220495;263;194058;-52
2021/08/12 02:14:59;;;;;;;;;;;;;;;23.82;60.09;97300.14;221022;262;99007;-50
2021/08/12 02:16:01;;;;;;;;;;;;;;;23.76;60.14;97305.67;222742;260;98945;-51
2021/08/12 02:17:02;;;;;;;;;;;;;;;23.83;59.98;97304.55;222641;261;98067;-52
2021/08/12 02:18:03;;;;;;;;;;;;;;;23.91;59.85;97306.40;222883;260;98005;-47
2021/08/12 02:19:05;;;;;;;;;;;;;;;23.86;59.86;97306.05;223309;260;97010;-51
2021/08/12 02:20:06;;;;;;;;;;;;;;;23.86;59.75;97303.28;221886;262;98951;-49
2021/08/12 02:21:07;;;;;;;;;;;;;;;23.80;59.96;97302.45;222767;260;193516;-54
2021/08/12 02:22:09;;;;;;;;;;;;;;;23.82;59.91;97302.91;223497;260;98938;-50
2021/08/12 02:23:10;;;;;;;;;;;;;;;23.81;59.92;97302.67;223429;260;98012;-53
2021/08/12 02:24:11;;;;;;;;;;;;;;;23.85;59.84;97305.02;223665;260;97764;-48
2021/08/12 02:25:13;;;;;;;;;;;;;;;23.83;59.77;97306.74;223076;260;98996;-47
2021/08/12 02:26:15;;;;;;;;;;;;;;;23.83;59.74;97301.20;223688;260;97860;-53
2021/08/12 02:27:16;;;;;;;;;;;;;;;23.77;59.90;97307.29;223447;260;98015;-54
2021/08/12 02:28:17;;;;;;;;;;;;;;;23.86;59.72;97306.62;223332;260;191949;-52
2021/08/12 02:29:19;;;;;;;;;;;;;;;23.79;59.70;97311.33;223665;260;97164;-47
2021/08/12 02:30:20;;;;;;;;;;;;;;;23.79;59.80;97312.70;222855;260;98953;-50
2021/08/12 02:35:20;;;;;;;;;;;;;;;23.71;59.81;97301.72;222437;260;157131;-46
2021/08/12 02:36:21;;;;;;;;;;;;;;;23.69;59.79;97308.17;222075;260;193454;-50
2021/08/12 02:37:22;;;;;;;;;;;;;;;23.69;59.85;97306.80;221757;262;98015;-44
2021/08/12 02:38:24;;;;;;;;;;;;;;;23.62;59.99;97305.41;222191;261;98973;-48
2021/08/12 02:39:25;;;;;;;;;;;;;;;23.62;59.90;97305.41;222304;261;98867;-50
2021/08/12 02:41:18;;;;;;;;;;;;;;;23.64;60.05;97316.94;226900;255;69946;-45
2021/08/12 02:42:19;;;;;;;;;;;;;;;23.55;60.25;97314.78;221402;262;190061;-45
2021/08/12 02:43:21;;;;;;;;;;;;;;;23.60;60.00;97305.48;220682;262;279139;-49
2021/08/12 02:44:22;;;;;;;;;;;;;;;23.59;60.12;97310.21;220629;262;194624;-48
2021/08/12 02:45:23;;;;;;;;;;;;;;;23.66;59.90;97309.09;221717;261;193318;-51
2021/08/12 02:46:24;;;;;;;;;;;;;;;23.70;59.85;97311.17;221870;261;99218;-47
2021/08/12 02:47:26;;;;;;;;;;;;;;;23.68;59.87;97309.33;222099;261;189582;-47
2021/08/12 02:48:27;;;;;;;;;;;;;;;23.59;59.96;97308.02;222044;261;277379;-46
2021/08/12 02:49:29;;;;;;;;;;;;;;;23.61;59.85;97310.70;221920;261;195468;-51
2021/08/12 02:50:30;;;;;;;;;;;;;;;23.59;60.02;97308.02;222073;261;192783;-49
2021/08/12 02:51:31;;;;;;;;;;;;;;;23.61;59.92;97307.94;222374;261;97901;-50
2021/08/12 02:52:33;;;;;;;;;;;;;;;23.57;60.00;97306.95;222234;261;98937;-53
2021/08/12 02:53:34;;;;;;;;;;;;;;;23.58;59.86;97302.23;221712;261;98903;-50
2021/08/12 02:54:35;;;;;;;;;;;;;;;23.56;59.96;97308.10;221666;261;98948;-52
2021/08/12 02:55:37;;;;;;;;;;;;;;;23.53;60.06;97306.02;220950;262;97924;-53
2021/08/12 02:56:38;;;;;;;;;;;;;;;23.55;60.04;97302.34;220866;262;98021;-49
2021/08/12 02:57:39;;;;;;;;;;;;;;;23.60;59.86;97308.25;219601;255;194709;-54
2021/08/12 02:58:44;;;;;;;;;;;;;;;23.58;59.88;97309.98;216807;256;98946;-52
2021/08/12 02:59:45;;;;;;;;;;;;;;;23.53;60.04;97303.83;217098;267;190401;-56
2021/08/12 03:01:05;;;;;;;;;;;;;;;23.52;60.77;97305.80;226313;255;70252;-58
2021/08/12 03:02:07;;;;;;;;;;;;;;;23.23;61.23;97305.88;222507;261;190167;-59
2021/08/12 03:03:08;;;;;;;;;;;;;;;22.91;61.85;97308.22;222606;261;279776;-57
2021/08/12 03:04:09;;;;;;;;;;;;;;;22.72;62.36;97311.95;221614;261;195500;-59
2021/08/12 03:05:13;;;;;;;;;;;;;;;22.56;62.60;97306.21;222615;261;195095;-59
2021/08/12 03:06:14;;;;;;;;;;;;;;;22.47;62.79;97306.25;221291;262;66853;-58
2021/08/12 03:07:15;;;;;;;;;;;;;;;22.60;62.72;97311.30;221556;262;98933;-60
2021/08/12 03:08:16;;;;;;;;;;;;;;;22.74;62.31;97311.86;221805;262;98027;-59
2021/08/12 03:09:18;;;;;;;;;;;;;;;22.60;62.54;97313.25;221450;262;98019;-57
2021/08/12 03:10:19;;;;;;;;;;;;;;;22.57;62.94;97311.97;221053;262;276710;-57
2021/08/12 03:11:20;;;;;;;;;;;;;;;22.76;62.42;97317.08;221194;262;194835;-57
2021/08/12 03:12:22;;;;;;;;;;;;;;;22.70;62.47;97312.88;220558;262;193884;-59
2021/08/12 03:13:23;;;;;;;;;;;;;;;22.64;64.71;97314.19;220867;262;98979;-58
2021/08/12 03:14:24;;;;;;;;;;;;;;;22.59;62.84;97311.63;220666;262;98027;-64
2021/08/12 03:15:26;;;;;;;;;;;;;;;22.88;62.34;97311.66;221007;262;98023;-58
2021/08/12 03:16:27;;;;;;;;;;;;;;;22.95;62.00;97307.77;220693;262;97055;-54
2021/08/12 03:17:29;;;;;;;;;;;;;;;23.05;61.80;97304.61;221867;262;98953;-57
2021/08/12 03:18:30;;;;;;;;;;;;;;;22.99;61.78;97305.97;222739;261;98926;-57
2021/08/12 03:19:31;;;;;;;;;;;;;;;22.95;61.82;97316.64;222538;261;193277;-58
2021/08/12 03:20:33;;;;;;;;;;;;;;;23.01;61.73;97311.97;221759;262;98063;-51
2021/08/12 03:21:34;;;;;;;;;;;;;;;23.09;61.50;97300.05;222693;261;188433;-58
2021/08/12 03:22:35;;;;;;;;;;;;;;;23.09;61.46;97312.48;220388;262;275872;-64
2021/08/12 03:23:37;;;;;;;;;;;;;;;23.13;61.51;97307.08;220494;262;194770;-49
2021/08/12 03:24:38;;;;;;;;;;;;;;;23.20;62.43;97301.03;220413;263;193444;-53
2021/08/12 03:25:39;;;;;;;;;;;;;;;23.26;61.43;97304.62;220956;263;99000;-57
2021/08/12 03:27:35;;;;;;;;;;;;;;;22.76;66.36;97308.78;226598;255;70770;-52
2021/08/12 03:28:36;;;;;;;;;;;;;;;22.62;62.92;97304.05;222022;260;189521;-55
2021/08/12 03:29:38;;;;;;;;;;;;;;;22.63;63.95;97309.81;221052;261;277143;-53
2021/08/12 03:30:39;;;;;;;;;;;;;;;22.73;62.56;97303.33;221627;262;195810;-55
2021/08/12 03:31:40;;;;;;;;;;;;;;;22.68;62.86;97309.64;222431;260;194043;-59
2021/08/12 03:32:42;;;;;;;;;;;;;;;22.76;62.62;97306.02;222887;260;97957;-58
2021/08/12 03:33:43;;;;;;;;;;;;;;;22.84;62.49;97307.12;222449;261;99038;-53
2021/08/12 03:34:44;;;;;;;;;;;;;;;22.88;62.36;97311.66;222760;259;97964;-58
2021/08/12 03:35:46;;;;;;;;;;;;;;;22.55;63.69;97307.36;222409;259;98015;-56
2021/08/12 03:36:47;;;;;;;;;;;;;;;22.60;62.88;97311.87;221878;262;98121;-59
2021/08/12 03:37:48;;;;;;;;;;;;;;;23.02;62.54;97312.20;219892;263;98946;-53
2021/08/12 03:38:50;;;;;;;;;;;;;;;23.11;61.54;97314.11;221420;261;100294;-50
2021/08/12 03:39:51;;;;;;;;;;;;;;;23.04;61.66;97308.53;222297;261;98934;-54
2021/08/12 03:40:52;;;;;;;;;;;;;;;23.11;61.45;97311.34;222076;260;97979;-56
2021/08/12 03:41:54;;;;;;;;;;;;;;;23.13;61.31;97307.66;223121;260;98064;-53
2021/08/12 03:42:55;;;;;;;;;;;;;;;23.02;61.45;97316.35;222880;260;97386;-55
2021/08/12 03:43:56;;;;;;;;;;;;;;;23.15;61.46;97306.17;222276;260;98962;-50
2021/08/12 03:44:58;;;;;;;;;;;;;;;22.84;61.99;97313.45;221873;261;98933;-49
2021/08/12 03:45:59;;;;;;;;;;;;;;;22.81;62.67;97309.95;221797;261;99023;-48
2021/08/12 03:47:00;;;;;;;;;;;;;;;22.98;61.99;97306.31;221473;261;98954;-50
2021/08/12 03:48:02;;;;;;;;;;;;;;;22.90;61.74;97310.75;221110;261;190959;-53
2021/08/12 03:49:03;;;;;;;;;;;;;;;23.03;61.55;97310.25;221562;260;277644;-48
2021/08/12 03:50:05;;;;;;;;;;;;;;;23.01;61.43;97311.97;221363;261;196233;-52
2021/08/12 03:51:06;;;;;;;;;;;;;;;23.08;61.40;97310.87;221166;261;193362;-51
2021/08/12 03:52:07;;;;;;;;;;;;;;;23.24;60.93;97314.41;221488;261;99047;-50
2021/08/12 03:53:09;;;;;;;;;;;;;;;23.31;60.74;97312.72;221268;261;98007;-49
2021/08/12 03:54:10;;;;;;;;;;;;;;;23.37;60.39;97310.55;221422;261;98110;-52
2021/08/12 03:55:11;;;;;;;;;;;;;;;23.32;60.58;97312.95;221190;261;97133;-47
2021/08/12 03:56:13;;;;;;;;;;;;;;;23.38;60.35;97317.70;221503;261;98983;-50
2021/08/12 03:57:14;;;;;;;;;;;;;;;23.39;60.19;97312.39;221246;261;99038;-50
2021/08/12 03:58:15;;;;;;;;;;;;;;;23.34;60.50;97316.77;221152;261;98990;-50
2021/08/12 03:59:17;;;;;;;;;;;;;;;23.48;60.00;97317.28;221298;261;100227;-49
2021/08/12 04:00:18;;;;;;;;;;;;;;;23.38;60.09;97318.50;221158;261;190201;-50
2021/08/12 04:01:19;;;;;;;;;;;;;;;23.38;60.13;97316.31;221580;260;277988;-49
2021/08/12 04:02:21;;;;;;;;;;;;;;;23.51;59.98;97320.78;222241;260;194111;-49
2021/08/12 04:03:22;;;;;;;;;;;;;;;23.55;59.79;97318.94;222770;260;193403;-49
2021/08/12 04:04:23;;;;;;;;;;;;;;;23.49;59.88;97318.90;222380;260;97962;-48
2021/08/12 04:05:25;;;;;;;;;;;;;;;23.47;59.84;97312.90;221895;261;188088;-49
2021/08/12 04:06:26;;;;;;;;;;;;;;;23.41;59.90;97319.80;221127;261;277420;-53
2021/08/12 04:07:27;;;;;;;;;;;;;;;23.33;60.11;97316.53;221338;262;194857;-49
2021/08/12 04:08:29;;;;;;;;;;;;;;;23.16;60.47;97313.89;221835;262;193068;-52
2021/08/12 04:09:30;;;;;;;;;;;;;;;23.15;60.49;97317.80;220995;263;99005;-49
2021/08/12 04:10:31;;;;;;;;;;;;;;;23.22;60.39;97310.59;221043;262;98100;-51
2021/08/12 04:11:33;;;;;;;;;;;;;;;23.23;60.28;97311.41;220474;263;98006;-50
2021/08/12 04:12:34;;;;;;;;;;;;;;;23.23;60.25;97316.36;221695;262;99050;-51
2021/08/12 04:13:35;;;;;;;;;;;;;;;23.02;60.70;97315.55;222062;262;98966;-53
2021/08/12 04:14:37;;;;;;;;;;;;;;;23.18;60.51;97309.66;221491;262;98945;-49
2021/08/12 04:15:38;;;;;;;;;;;;;;;23.19;60.29;97311.28;220285;262;192936;-50
2021/08/12 04:16:39;;;;;;;;;;;;;;;23.25;60.28;97309.11;222528;260;98053;-52
2021/08/12 04:17:41;;;;;;;;;;;;;;;23.26;60.05;97305.19;221171;261;98998;-51
2021/08/12 04:18:42;;;;;;;;;;;;;;;23.16;60.26;97306.98;222359;261;98083;-53
2021/08/12 04:19:43;;;;;;;;;;;;;;;23.21;60.23;97310.36;222054;261;98125;-52
2021/08/12 04:20:45;;;;;;;;;;;;;;;23.03;60.49;97311.63;222181;261;97561;-54
2021/08/12 04:21:46;;;;;;;;;;;;;;;22.93;60.72;97314.22;222049;261;99083;-52
2021/08/12 04:22:47;;;;;;;;;;;;;;;22.84;60.96;97314.84;221929;261;98995;-54
2021/08/12 04:23:49;;;;;;;;;;;;;;;22.95;60.80;97322.16;221148;262;98946;-51
2021/08/12 04:24:50;;;;;;;;;;;;;;;23.00;60.64;97320.03;221916;261;99037;-48
2021/08/12 04:25:51;;;;;;;;;;;;;;;22.88;60.86;97310.28;222531;260;98997;-48
2021/08/12 04:26:53;;;;;;;;;;;;;;;22.89;60.93;97314.66;220274;263;98946;-50
2021/08/12 04:27:54;;;;;;;;;;;;;;;22.88;60.94;97314.42;220998;262;99051;-47
2021/08/12 04:28:55;;;;;;;;;;;;;;;22.78;61.04;97316.16;221400;261;99024;-49
2021/08/12 04:29:57;;;;;;;;;;;;;;;22.78;61.06;97310.06;222523;261;98939;-49
2021/08/12 04:30:58;;;;;;;;;;;;;;;22.85;61.03;97313.69;222003;261;97698;-52
2021/08/12 04:31:59;;;;;;;;;;;;;;;22.66;61.28;97314.70;220145;263;189304;-47
2021/08/12 04:33:01;;;;;;;;;;;;;;;22.74;61.27;97317.95;221986;261;275642;-48
2021/08/12 04:34:02;;;;;;;;;;;;;;;22.79;61.18;97319.16;221420;262;195541;-50
2021/08/12 04:35:03;;;;;;;;;;;;;;;22.64;61.36;97315.58;221616;262;193663;-49
2021/08/12 04:36:05;;;;;;;;;;;;;;;22.64;61.25;97311.43;222046;262;99579;-50
2021/08/12 04:37:06;;;;;;;;;;;;;;;22.64;61.39;97312.23;221985;262;98074;-49
2021/08/12 04:38:07;;;;;;;;;;;;;;;22.58;61.48;97312.78;222133;262;98030;-46
2021/08/12 04:39:09;;;;;;;;;;;;;;;22.58;61.58;97313.59;221890;262;98016;-49
2021/08/12 04:40:10;;;;;;;;;;;;;;;22.70;61.39;97314.25;222049;262;99553;-48
2021/08/12 04:41:11;;;;;;;;;;;;;;;22.53;61.59;97317.33;221933;262;99479;-47
2021/08/12 04:42:13;;;;;;;;;;;;;;;22.66;61.37;97318.27;221843;262;98943;-49
2021/08/12 04:43:14;;;;;;;;;;;;;;;22.58;61.49;97314.97;222136;262;98967;-47
2021/08/12 04:44:15;;;;;;;;;;;;;;;22.62;61.47;97320.05;221795;262;190200;-48
2021/08/12 04:45:17;;;;;;;;;;;;;;;22.49;61.69;97316.39;221636;262;277510;-51
2021/08/12 04:46:20;;;;;;;;;;;;;;;22.49;61.71;97316.96;221836;262;193665;-49
2021/08/12 04:47:21;;;;;;;;;;;;;;;22.53;61.89;97313.76;221832;262;193428;-55
2021/08/12 04:48:22;;;;;;;;;;;;;;;22.84;61.32;97312.08;221876;262;98040;-62
2021/08/12 04:50:00;;;;;;;;;;;;;;;23.02;60.80;97312.78;227591;255;70313;-53
2021/08/12 04:51:02;;;;;;;;;;;;;;;23.06;60.47;97311.75;222209;260;190904;-53
2021/08/12 04:52:03;;;;;;;;;;;;;;;23.05;60.59;97312.91;221849;260;278037;-58
2021/08/12 04:53:04;;;;;;;;;;;;;;;22.93;60.79;97312.83;221700;261;194815;-49
2021/08/12 04:54:06;;;;;;;;;;;;;;;22.95;60.72;97313.30;222091;260;194110;-57
2021/08/12 04:55:07;;;;;;;;;;;;;;;22.98;60.58;97301.59;221596;261;98964;-56
2021/08/12 04:56:08;;;;;;;;;;;;;;;22.91;60.83;97304.07;223129;259;188525;-58
2021/08/12 04:57:10;;;;;;;;;;;;;;;22.73;61.53;97306.67;223720;259;278263;-56
2021/08/12 04:58:11;;;;;;;;;;;;;;;22.81;61.59;97303.05;223383;259;195553;-57
2021/08/12 04:59:12;;;;;;;;;;;;;;;22.86;61.20;97311.16;222442;260;193943;-61
2021/08/12 05:00:14;;;;;;;;;;;;;;;22.94;60.99;97311.69;223601;260;98937;-59
2021/08/12 05:01:15;;;;;;;;;;;;;;;22.98;60.76;97309.88;221864;261;98977;-57
2021/08/12 05:02:16;;;;;;;;;;;;;;;22.86;60.96;97318.07;223118;260;99049;-61
2021/08/12 05:03:18;;;;;;;;;;;;;;;22.82;61.22;97312.95;222268;261;98970;-57
2021/08/12 05:04:19;;;;;;;;;;;;;;;22.85;61.11;97310.92;221867;260;98985;-55
2021/08/12 05:05:20;;;;;;;;;;;;;;;22.83;61.05;97309.05;222108;260;97972;-58
2021/08/12 05:06:22;;;;;;;;;;;;;;;22.95;60.95;97316.06;221362;261;193018;-58
2021/08/12 05:07:23;;;;;;;;;;;;;;;23.01;60.77;97317.50;221652;262;98009;-54
2021/08/12 05:08:24;;;;;;;;;;;;;;;22.98;60.71;97310.46;221944;260;99562;-52
2021/08/12 05:09:26;;;;;;;;;;;;;;;23.13;60.45;97314.57;222944;260;98969;-56
2021/08/12 05:10:27;;;;;;;;;;;;;;;23.07;60.95;97317.55;222772;260;98949;-55
2021/08/12 05:11:28;;;;;;;;;;;;;;;23.00;60.84;97322.80;223400;259;98066;-60
2021/08/12 05:12:30;;;;;;;;;;;;;;;23.18;60.71;97315.20;221866;260;97964;-54
2021/08/12 05:13:31;;;;;;;;;;;;;;;23.19;60.82;97317.38;222143;260;98003;-49
2021/08/12 05:14:32;;;;;;;;;;;;;;;23.00;60.81;97316.45;222889;260;98857;-52
2021/08/12 05:15:34;;;;;;;;;;;;;;;23.05;60.89;97320.39;222691;260;190104;-49
2021/08/12 05:16:35;;;;;;;;;;;;;;;23.07;60.59;97323.63;222160;260;278002;-47
2021/08/12 05:17:36;;;;;;;;;;;;;;;23.04;60.54;97316.01;222277;260;195575;-53
2021/08/12 05:18:38;;;;;;;;;;;;;;;22.94;60.85;97312.26;222625;260;195976;-47
2021/08/12 05:19:40;;;;;;;;;;;;;;;22.95;60.74;97316.64;223258;260;100608;-49
2021/08/12 05:20:41;;;;;;;;;;;;;;;23.05;60.67;97317.05;222292;260;189548;-52
2021/08/12 05:21:43;;;;;;;;;;;;;;;23.01;60.57;97313.35;221857;260;276437;-51
2021/08/12 05:22:44;;;;;;;;;;;;;;;23.12;60.49;97312.95;222860;259;194728;-50
2021/08/12 05:23:45;;;;;;;;;;;;;;;22.97;60.61;97319.33;222495;260;194202;-51
2021/08/12 05:24:47;;;;;;;;;;;;;;;22.91;60.78;97312.36;222715;259;98923;-48
2021/08/12 05:25:48;;;;;;;;;;;;;;;22.97;60.68;97314.38;220407;262;99419;-49